createdAt,value
2023-05-16T00:02:00.253Z,18.25
2023-05-16T00:04:27.617Z,18.01
2023-05-16T00:06:55.089Z,17.78
2023-05-16T00:09:22.306Z,17.54
2023-05-16T00:11:50.251Z,17.32
2023-05-16T00:14:17.318Z,17.80
2023-05-16T00:16:44.385Z,18.37
2023-05-16T00:19:11.759Z,18.45
2023-05-16T00:21:38.762Z,18.29
2023-05-16T00:24:06.016Z,18.08
2023-05-16T00:26:32.992Z,17.86
2023-05-16T00:28:59.861Z,17.67
2023-05-16T00:31:26.967Z,17.43
2023-05-16T00:33:54.896Z,17.83
2023-05-16T00:36:23.837Z,18.36
2023-05-16T00:38:51.030Z,18.40
2023-05-16T00:41:18.006Z,18.22
2023-05-16T00:43:45.522Z,17.99
2023-05-16T00:46:12.570Z,17.77
2023-05-16T00:48:39.669Z,17.56
2023-05-16T00:51:09.480Z,17.37
2023-05-16T00:53:37.208Z,17.89
2023-05-16T00:56:06.223Z,18.51
2023-05-16T00:58:34.038Z,18.61
2023-05-16T01:01:03.721Z,18.43
2023-05-16T01:03:32.312Z,18.17
2023-05-16T01:05:59.946Z,17.93
2023-05-16T01:08:27.224Z,17.71
2023-05-16T01:11:37.453Z,17.43
2023-05-16T01:14:17.946Z,18.01
2023-05-16T01:16:47.169Z,18.40
2023-05-16T01:19:21.516Z,18.32
2023-05-16T01:21:52.500Z,18.05
2023-05-16T01:24:25.442Z,17.80
2023-05-16T01:26:53.778Z,17.54
2023-05-16T01:29:20.794Z,17.32
2023-05-16T01:31:48.684Z,17.12
2023-05-16T01:34:16.052Z,17.64
2023-05-16T01:36:48.698Z,18.25
2023-05-16T01:39:22.363Z,18.32
2023-05-16T01:42:03.724Z,18.16
2023-05-16T01:44:44.433Z,17.92
2023-05-16T01:47:15.192Z,17.67
2023-05-16T01:49:58.326Z,17.42
2023-05-16T01:52:51.170Z,17.19
2023-05-16T01:55:25.052Z,17.95
2023-05-16T01:57:52.173Z,18.50
2023-05-16T02:00:19.197Z,18.49
2023-05-16T02:02:46.937Z,18.28
2023-05-16T02:05:15.832Z,17.99
2023-05-16T02:07:44.498Z,17.74
2023-05-16T02:10:12.242Z,17.53
2023-05-16T02:12:39.287Z,17.32
2023-05-16T02:15:07.036Z,17.80
2023-05-16T02:17:34.124Z,18.37
2023-05-16T02:20:06.770Z,18.44
2023-05-16T02:22:34.120Z,18.27
2023-05-16T02:25:01.265Z,18.03
2023-05-16T02:27:28.347Z,17.79
2023-05-16T02:29:55.385Z,17.57
2023-05-16T02:32:22.831Z,17.32
2023-05-16T02:34:49.740Z,17.79
2023-05-16T02:37:16.719Z,18.36
2023-05-16T02:39:43.678Z,18.45
2023-05-16T02:42:10.699Z,18.28
2023-05-16T02:44:39.019Z,18.01
2023-05-16T02:47:06.178Z,17.73
2023-05-16T02:49:33.123Z,17.49
2023-05-16T02:52:00.767Z,17.26
2023-05-16T02:54:27.694Z,17.73
2023-05-16T02:56:54.619Z,18.29
2023-05-16T02:59:21.727Z,18.34
2023-05-16T03:01:48.891Z,18.16
2023-05-16T03:04:17.238Z,17.91
2023-05-16T03:06:44.408Z,17.67
2023-05-16T03:09:11.322Z,17.43
2023-05-16T03:11:38.336Z,17.21
2023-05-16T03:14:05.843Z,17.68
2023-05-16T03:16:33.104Z,18.28
2023-05-16T03:19:00.238Z,18.37
2023-05-16T03:21:27.519Z,18.23
2023-05-16T03:23:55.362Z,18.04
2023-05-16T03:26:22.893Z,17.83
2023-05-16T03:28:51.859Z,17.61
2023-05-16T03:31:19.464Z,17.40
2023-05-16T03:33:46.602Z,17.93
2023-05-16T03:36:13.613Z,18.57
2023-05-16T03:38:40.792Z,18.69
2023-05-16T03:41:07.727Z,18.54
2023-05-16T03:43:35.193Z,18.34
2023-05-16T03:46:02.604Z,18.13
2023-05-16T03:48:30.009Z,17.96
2023-05-16T03:50:57.302Z,17.78
2023-05-16T03:53:24.403Z,18.25
2023-05-16T03:55:51.601Z,18.87
2023-05-16T03:58:18.617Z,18.98
2023-05-16T04:00:46.975Z,18.84
2023-05-16T04:03:13.970Z,18.61
2023-05-16T04:05:41.231Z,18.39
2023-05-16T04:08:08.860Z,18.19
2023-05-16T04:10:36.115Z,18.01
2023-05-16T04:13:03.078Z,18.45
2023-05-16T04:15:30.255Z,19.09
2023-05-16T04:17:57.305Z,19.28
2023-05-16T04:20:24.271Z,19.24
2023-05-16T04:22:51.981Z,19.16
2023-05-16T04:25:18.928Z,19.05
2023-05-16T04:27:45.924Z,18.95
2023-05-16T04:30:14.225Z,18.85
2023-05-16T04:32:42.133Z,18.78
2023-05-16T04:35:09.381Z,19.38
2023-05-16T04:37:36.880Z,20.10
2023-05-16T04:40:04.014Z,20.32
2023-05-16T04:42:31.182Z,20.24
2023-05-16T04:44:58.451Z,20.04
2023-05-16T04:47:25.576Z,19.83
2023-05-16T04:49:52.585Z,19.65
2023-05-16T04:52:19.639Z,19.48
2023-05-16T04:54:46.585Z,19.32
2023-05-16T04:57:13.670Z,19.20
2023-05-16T04:59:40.698Z,19.10
2023-05-16T05:02:07.990Z,19.02
2023-05-16T05:04:35.260Z,19.61
2023-05-16T05:07:02.354Z,20.27
2023-05-16T05:09:29.431Z,20.39
2023-05-16T05:11:56.419Z,20.31
2023-05-16T05:14:23.416Z,20.13
2023-05-16T05:16:50.407Z,19.93
2023-05-16T05:19:17.841Z,19.76
2023-05-16T05:21:44.971Z,19.66
2023-05-16T05:24:11.981Z,19.59
2023-05-16T05:26:38.996Z,19.57
2023-05-16T05:29:06.477Z,19.59
2023-05-16T05:31:34.910Z,20.31
2023-05-16T05:34:03.001Z,21.12
2023-05-16T05:36:31.069Z,21.40
2023-05-16T05:38:58.014Z,21.41
2023-05-16T05:41:24.967Z,21.41
2023-05-16T05:43:52.248Z,21.44
2023-05-16T05:46:20.378Z,21.46
2023-05-16T05:48:47.565Z,21.58
2023-05-16T05:51:14.525Z,21.81
2023-05-16T05:53:41.916Z,22.25
2023-05-16T05:56:09.430Z,22.67
2023-05-16T05:58:36.589Z,22.73
2023-05-16T06:01:03.512Z,22.63
2023-05-16T06:03:31.194Z,22.57
2023-05-16T06:05:58.583Z,22.52
2023-05-16T06:08:27.031Z,22.48
2023-05-16T06:10:54.409Z,22.46
2023-05-16T06:13:21.556Z,22.41
2023-05-16T06:15:54.989Z,22.34
2023-05-16T06:18:22.106Z,22.31
2023-05-16T06:20:49.513Z,22.40
2023-05-16T06:23:17.453Z,22.50
2023-05-16T06:25:45.165Z,22.56
2023-05-16T06:28:12.099Z,22.61
2023-05-16T06:30:39.205Z,22.65
2023-05-16T06:33:06.630Z,22.66
2023-05-16T06:35:33.686Z,22.65
2023-05-16T06:38:00.740Z,22.60
2023-05-16T06:40:27.702Z,22.57
2023-05-16T06:42:54.896Z,22.56
2023-05-16T06:45:22.432Z,22.55
2023-05-16T06:47:49.683Z,22.60
2023-05-16T06:50:16.839Z,22.73
2023-05-16T06:52:44.572Z,22.86
2023-05-16T06:55:12.699Z,22.98
2023-05-16T06:57:39.939Z,23.09
2023-05-16T07:00:08.417Z,23.18
2023-05-16T07:02:36.270Z,23.31
2023-05-16T07:05:03.450Z,23.36
2023-05-16T07:07:30.805Z,23.36
2023-05-16T07:09:57.832Z,23.40
2023-05-16T07:12:24.722Z,23.52
2023-05-16T07:14:51.675Z,23.66
2023-05-16T07:17:18.813Z,23.84
2023-05-16T07:19:46.147Z,24.06
2023-05-16T07:22:13.064Z,24.20
2023-05-16T07:24:40.312Z,24.29
2023-05-16T07:27:07.876Z,24.39
2023-05-16T07:29:37.439Z,24.52
2023-05-16T07:32:05.245Z,24.76
2023-05-16T07:34:32.339Z,24.92
2023-05-16T07:36:59.374Z,24.94
2023-05-16T07:39:26.810Z,24.92
2023-05-16T07:41:53.846Z,24.88
2023-05-16T07:44:20.987Z,24.86
2023-05-16T07:46:48.056Z,24.89
2023-05-16T07:49:15.093Z,24.87
2023-05-16T07:51:42.278Z,24.82
2023-05-16T07:54:09.485Z,24.72
2023-05-16T07:56:36.637Z,24.63
2023-05-16T07:59:05.912Z,24.48
2023-05-16T08:01:33.905Z,24.26
2023-05-16T08:04:00.994Z,24.18
2023-05-16T08:06:28.064Z,24.16
2023-05-16T08:08:57.716Z,24.20
2023-05-16T08:11:25.714Z,24.23
2023-05-16T08:13:53.033Z,24.31
2023-05-16T08:16:20.110Z,24.35
2023-05-16T08:18:47.200Z,24.33
2023-05-16T08:21:14.636Z,24.33
2023-05-16T08:23:41.887Z,24.29
2023-05-16T08:26:08.901Z,24.27
2023-05-16T08:28:38.511Z,24.26
2023-05-16T08:31:05.679Z,24.24
2023-05-16T08:33:33.307Z,24.29
2023-05-16T08:36:01.161Z,24.42
2023-05-16T08:38:28.225Z,24.54
2023-05-16T08:40:55.334Z,24.60
2023-05-16T08:43:22.595Z,24.66
2023-05-16T08:45:52.538Z,24.83
2023-05-16T08:48:20.999Z,25.00
2023-05-16T08:50:48.096Z,25.20
2023-05-16T08:53:17.632Z,25.39
2023-05-16T08:55:44.792Z,25.54
2023-05-16T08:58:11.863Z,25.77
2023-05-16T09:00:39.808Z,25.94
2023-05-16T09:03:07.309Z,26.03
2023-05-16T09:05:34.420Z,26.20
2023-05-16T09:08:01.623Z,26.38
2023-05-16T09:10:28.788Z,26.76
2023-05-16T09:12:55.928Z,26.98
2023-05-16T09:15:23.014Z,27.23
2023-05-16T09:17:50.356Z,27.33
2023-05-16T09:20:19.765Z,27.53
2023-05-16T09:22:57.478Z,27.77
2023-05-16T09:25:30.125Z,27.79
2023-05-16T09:27:59.632Z,27.74
2023-05-16T09:30:35.185Z,27.47
2023-05-16T09:33:03.004Z,27.21
2023-05-16T09:35:44.172Z,27.31
2023-05-16T09:38:17.409Z,27.38
2023-05-16T09:40:45.131Z,27.40
2023-05-16T09:43:12.484Z,27.45
2023-05-16T09:45:39.543Z,27.38
2023-05-16T09:48:10.305Z,27.34
2023-05-16T09:50:37.807Z,27.30
2023-05-16T09:53:05.608Z,27.51
2023-05-16T09:55:32.736Z,27.66
2023-05-16T09:57:59.828Z,27.75
2023-05-16T10:00:31.741Z,27.77
2023-05-16T10:03:01.395Z,27.83
2023-05-16T10:05:31.069Z,27.92
2023-05-16T10:07:58.354Z,27.97
2023-05-16T10:10:25.576Z,28.03
2023-05-16T10:12:52.827Z,28.11
2023-05-16T10:15:20.009Z,28.00
2023-05-16T10:19:33.762Z,27.61
2023-05-16T10:22:01.062Z,27.83
2023-05-16T10:24:33.889Z,28.09
2023-05-16T10:27:03.384Z,28.37
2023-05-16T10:29:37.436Z,28.47
2023-05-16T10:32:10.490Z,28.46
2023-05-16T10:34:37.683Z,28.51
2023-05-16T10:37:04.890Z,28.50
2023-05-16T10:39:32.429Z,28.47
2023-05-16T10:42:00.196Z,28.49
2023-05-16T10:44:27.550Z,28.28
2023-05-16T10:46:54.814Z,27.92
2023-05-16T10:49:22.868Z,27.56
2023-05-16T10:52:02.306Z,27.31
2023-05-16T10:54:40.532Z,27.16
2023-05-16T10:57:22.082Z,27.07
2023-05-16T10:59:50.134Z,27.12
2023-05-16T11:02:29.173Z,27.22
2023-05-16T11:04:59.661Z,27.35
2023-05-16T11:07:34.813Z,27.54
2023-05-16T11:10:15.233Z,27.73
2023-05-16T11:12:49.338Z,27.96
2023-05-16T11:15:26.074Z,28.36
2023-05-16T11:18:16.002Z,28.54
2023-05-16T11:20:43.228Z,28.29
2023-05-16T11:23:22.996Z,28.00
2023-05-16T11:25:54.149Z,27.74
2023-05-16T11:28:21.506Z,27.64
2023-05-16T11:30:51.302Z,27.43
2023-05-16T11:33:20.833Z,27.32
2023-05-16T11:36:14.602Z,27.42
2023-05-16T11:38:44.059Z,27.53
2023-05-16T11:41:11.746Z,27.66
2023-05-16T11:43:43.144Z,27.86
2023-05-16T11:46:13.882Z,28.02
2023-05-16T11:48:41.455Z,28.23
2023-05-16T11:51:10.371Z,28.49
2023-05-16T11:53:38.490Z,28.70
2023-05-16T11:56:08.475Z,29.02
2023-05-16T11:58:37.173Z,29.11
2023-05-16T12:01:04.714Z,29.15
2023-05-16T12:03:33.833Z,29.45
2023-05-16T12:06:01.002Z,29.76
2023-05-16T12:08:28.489Z,29.97
2023-05-16T12:10:55.483Z,30.10
2023-05-16T12:13:23.948Z,30.37
2023-05-16T12:15:51.414Z,30.51
2023-05-16T12:18:19.387Z,30.42
2023-05-16T12:20:46.315Z,30.60
2023-05-16T12:23:14.133Z,30.77
2023-05-16T12:25:47.138Z,30.48
2023-05-16T12:28:14.687Z,30.27
2023-05-16T12:30:43.128Z,30.00
2023-05-16T12:33:11.609Z,29.79
2023-05-16T12:35:40.295Z,29.73
2023-05-16T12:38:11.802Z,29.60
2023-05-16T12:40:42.151Z,29.54
2023-05-16T12:43:15.589Z,29.44
2023-05-16T12:45:43.511Z,29.29
2023-05-16T12:48:16.574Z,29.08
2023-05-16T12:50:46.634Z,28.79
2023-05-16T12:53:14.130Z,28.57
2023-05-16T12:55:41.633Z,28.22
2023-05-16T12:58:09.238Z,27.88
2023-05-16T13:00:39.271Z,27.64
2023-05-16T13:03:07.575Z,27.52
2023-05-16T13:05:36.367Z,27.39
2023-05-16T13:08:04.289Z,27.37
2023-05-16T13:10:31.463Z,27.38
2023-05-16T13:13:01.996Z,27.31
2023-05-16T13:15:29.587Z,27.22
2023-05-16T13:17:56.896Z,27.14
2023-05-16T13:20:24.109Z,27.11
2023-05-16T13:22:51.116Z,26.97
2023-05-16T13:25:18.090Z,26.86
2023-05-16T13:27:46.552Z,26.82
2023-05-16T13:30:13.901Z,26.75
2023-05-16T13:32:41.863Z,26.66
2023-05-16T13:35:10.400Z,26.60
2023-05-16T13:37:37.917Z,26.56
2023-05-16T13:40:05.718Z,26.51
2023-05-16T13:42:33.651Z,26.52
2023-05-16T13:45:00.858Z,26.55
2023-05-16T13:47:30.371Z,26.59
2023-05-16T13:49:57.536Z,26.67
2023-05-16T13:52:24.981Z,26.78
2023-05-16T13:54:52.180Z,26.85
2023-05-16T13:57:19.196Z,26.84
2023-05-16T14:00:11.513Z,26.77
2023-05-16T14:02:42.367Z,26.64
2023-05-16T14:05:10.455Z,26.71
2023-05-16T14:07:37.709Z,26.84
2023-05-16T14:10:06.983Z,26.81
2023-05-16T14:12:34.924Z,26.85
2023-05-16T14:15:03.517Z,26.96
2023-05-16T14:17:30.968Z,27.08
2023-05-16T14:19:57.912Z,27.22
2023-05-16T14:22:25.116Z,27.24
2023-05-16T14:24:52.467Z,27.29
2023-05-16T14:27:19.633Z,27.28
2023-05-16T14:29:48.915Z,27.30
2023-05-16T14:32:16.258Z,27.35
2023-05-16T14:34:43.397Z,27.30
2023-05-16T14:37:11.270Z,27.40
2023-05-16T14:39:38.366Z,27.30
2023-05-16T14:42:08.661Z,27.20
2023-05-16T14:44:36.220Z,27.24
2023-05-16T14:47:04.340Z,27.32
2023-05-16T14:49:32.415Z,27.16
2023-05-16T14:51:59.321Z,27.01
2023-05-16T14:54:26.266Z,26.94
2023-05-16T14:56:53.185Z,26.95
2023-05-16T14:59:21.272Z,26.82
2023-05-16T15:01:48.475Z,26.67
2023-05-16T15:04:15.432Z,26.53
2023-05-16T15:06:42.574Z,26.43
2023-05-16T15:09:09.940Z,26.32
2023-05-16T15:11:36.997Z,26.09
2023-05-16T15:14:03.938Z,25.97
2023-05-16T15:16:31.499Z,25.89
2023-05-16T15:18:58.695Z,25.81
2023-05-16T15:21:25.839Z,25.77
2023-05-16T15:23:53.403Z,25.70
2023-05-16T15:26:22.474Z,25.56
2023-05-16T15:28:49.742Z,25.47
2023-05-16T15:31:16.794Z,25.36
2023-05-16T15:33:48.239Z,25.28
2023-05-16T15:36:15.632Z,25.31
2023-05-16T15:38:46.007Z,25.34
2023-05-16T15:41:27.176Z,25.31
2023-05-16T15:44:00.887Z,25.23
2023-05-16T15:46:27.991Z,25.10
2023-05-16T15:48:54.962Z,24.94
2023-05-16T15:51:21.904Z,24.79
2023-05-16T15:53:48.918Z,24.66
2023-05-16T15:56:16.126Z,24.53
2023-05-16T15:58:46.802Z,24.44
2023-05-16T16:01:13.868Z,24.34
2023-05-16T16:03:41.174Z,24.23
2023-05-16T16:06:08.290Z,24.12
2023-05-16T16:08:35.404Z,24.03
2023-05-16T16:11:02.887Z,23.95
2023-05-16T16:13:31.059Z,23.88
2023-05-16T16:15:58.116Z,23.80
2023-05-16T16:18:25.068Z,23.73
2023-05-16T16:20:53.120Z,23.66
2023-05-16T16:23:20.112Z,23.59
2023-05-16T16:25:47.314Z,23.53
2023-05-16T16:28:14.260Z,23.47
2023-05-16T16:30:41.576Z,23.41
2023-05-16T16:33:08.636Z,23.32
2023-05-16T16:35:35.597Z,23.22
2023-05-16T16:38:06.976Z,23.14
2023-05-16T16:40:34.645Z,23.06
2023-05-16T16:43:01.696Z,23.01
2023-05-16T16:45:29.555Z,22.96
2023-05-16T16:47:56.842Z,22.90
2023-05-16T16:50:26.039Z,22.88
2023-05-16T16:52:56.306Z,22.83
2023-05-16T16:55:23.282Z,22.79
2023-05-16T16:57:50.627Z,22.72
2023-05-16T17:00:17.713Z,23.22
2023-05-16T17:02:45.098Z,23.88
2023-05-16T17:05:12.185Z,24.05
2023-05-16T17:07:40.023Z,23.95
2023-05-16T17:10:07.988Z,23.78
2023-05-16T17:12:35.221Z,23.57
2023-05-16T17:15:02.374Z,23.41
2023-05-16T17:17:29.907Z,23.24
2023-05-16T17:19:57.070Z,23.09
2023-05-16T17:22:23.981Z,22.95
2023-05-16T17:24:50.974Z,22.84
2023-05-16T17:27:18.101Z,22.73
2023-05-16T17:29:45.041Z,22.63
2023-05-16T17:32:12.174Z,22.51
2023-05-16T17:34:40.431Z,22.38
2023-05-16T17:37:07.417Z,22.27
2023-05-16T17:39:35.607Z,22.11
2023-05-16T17:42:03.202Z,22.52
2023-05-16T17:44:30.355Z,23.16
2023-05-16T17:46:57.678Z,23.31
2023-05-16T17:49:25.007Z,23.21
2023-05-16T17:51:53.352Z,23.01
2023-05-16T17:54:21.317Z,22.71
2023-05-16T17:56:49.824Z,22.60
2023-05-16T17:59:16.945Z,22.50
2023-05-16T18:01:43.956Z,22.37
2023-05-16T18:04:11.179Z,22.25
2023-05-16T18:06:38.498Z,22.18
2023-05-16T18:09:10.349Z,22.12
2023-05-16T18:11:38.917Z,22.03
2023-05-16T18:14:08.887Z,21.95
2023-05-16T18:16:36.103Z,21.91
2023-05-16T18:19:05.072Z,21.87
2023-05-16T18:21:32.365Z,21.80
2023-05-16T18:23:59.984Z,22.39
2023-05-16T18:26:30.082Z,23.10
2023-05-16T18:28:57.967Z,23.26
2023-05-16T18:31:25.038Z,23.12
2023-05-16T18:33:53.155Z,22.90
2023-05-16T18:36:20.222Z,22.69
2023-05-16T18:38:47.355Z,22.53
2023-05-16T18:41:14.405Z,22.38
2023-05-16T18:43:41.445Z,22.24
2023-05-16T18:46:08.618Z,22.13
2023-05-16T18:48:36.902Z,22.02
2023-05-16T18:51:04.763Z,21.90
2023-05-16T18:53:32.731Z,21.81
2023-05-16T18:55:59.883Z,21.73
2023-05-16T18:58:28.477Z,21.67
2023-05-16T19:00:55.511Z,21.61
2023-05-16T19:03:22.685Z,21.53
2023-05-16T19:05:49.843Z,21.45
2023-05-16T19:08:17.263Z,21.38
2023-05-16T19:10:44.438Z,21.31
2023-05-16T19:13:11.576Z,21.24
2023-05-16T19:15:38.942Z,21.16
2023-05-16T19:18:06.778Z,21.07
2023-05-16T19:20:34.484Z,20.98
2023-05-16T19:23:03.269Z,20.88
2023-05-16T19:25:30.419Z,20.80
2023-05-16T19:27:57.722Z,20.75
2023-05-16T19:30:25.163Z,20.69
2023-05-16T19:32:52.410Z,20.50
2023-05-16T19:35:19.726Z,20.31
2023-05-16T19:37:46.856Z,20.21
2023-05-16T19:40:16.430Z,20.05
2023-05-16T19:42:44.438Z,19.89
2023-05-16T19:45:12.809Z,20.37
2023-05-16T19:47:40.697Z,21.00
2023-05-16T19:50:08.319Z,21.03
2023-05-16T19:52:36.375Z,20.74
2023-05-16T19:55:04.688Z,20.45
2023-05-16T19:57:31.931Z,20.15
2023-05-16T19:59:58.993Z,19.87
2023-05-16T20:02:26.213Z,19.68
2023-05-16T20:04:53.260Z,19.57
2023-05-16T20:07:20.736Z,19.43
2023-05-16T20:09:47.760Z,19.93
2023-05-16T20:12:15.403Z,20.58
2023-05-16T20:14:42.422Z,20.73
2023-05-16T20:17:09.515Z,20.62
2023-05-16T20:19:37.614Z,20.40
2023-05-16T20:22:04.744Z,20.14
2023-05-16T20:24:31.850Z,19.91
2023-05-16T20:26:59.262Z,19.64
2023-05-16T20:29:26.610Z,20.05
2023-05-16T20:31:53.674Z,20.59
2023-05-16T20:34:20.791Z,20.69
2023-05-16T20:36:48.371Z,20.54
2023-05-16T20:39:15.467Z,20.33
2023-05-16T20:41:42.480Z,20.12
2023-05-16T20:44:09.674Z,19.91
2023-05-16T20:46:37.155Z,19.70
2023-05-16T20:49:04.241Z,19.50
2023-05-16T20:51:32.130Z,19.98
2023-05-16T20:53:59.174Z,20.55
2023-05-16T20:56:26.569Z,20.60
2023-05-16T20:58:53.626Z,20.42
2023-05-16T21:01:21.168Z,20.22
2023-05-16T21:03:48.151Z,19.97
2023-05-16T21:06:15.129Z,19.69
2023-05-16T21:08:42.419Z,19.47
2023-05-16T21:11:09.367Z,19.28
2023-05-16T21:13:37.468Z,19.79
2023-05-16T21:16:04.770Z,20.42
2023-05-16T21:18:33.404Z,20.51
2023-05-16T21:21:01.016Z,20.36
2023-05-16T21:23:28.191Z,20.14
2023-05-16T21:25:55.151Z,19.92
2023-05-16T21:28:22.112Z,19.73
2023-05-16T21:30:49.444Z,19.56
2023-05-16T21:33:16.616Z,19.40
2023-05-16T21:35:43.638Z,19.26
2023-05-16T21:38:11.220Z,19.12
2023-05-16T21:40:38.238Z,19.69
2023-05-16T21:43:05.792Z,20.34
2023-05-16T21:45:32.946Z,20.46
2023-05-16T21:48:00.230Z,20.32
2023-05-16T21:50:27.380Z,20.10
2023-05-16T21:52:54.409Z,19.86
2023-05-16T21:55:21.363Z,19.67
2023-05-16T21:57:48.398Z,19.48
2023-05-16T22:00:16.085Z,19.32
2023-05-16T22:02:43.383Z,19.15
2023-05-16T22:05:10.563Z,19.60
2023-05-16T22:07:37.976Z,20.14
2023-05-16T22:10:05.531Z,20.27
2023-05-16T22:12:33.342Z,20.11
2023-05-16T22:15:00.495Z,19.87
2023-05-16T22:17:27.560Z,19.64
2023-05-16T22:19:54.867Z,19.42
2023-05-16T22:22:21.863Z,19.14
2023-05-16T22:24:48.817Z,18.97
2023-05-16T22:27:15.815Z,18.85
2023-05-16T22:29:42.925Z,19.43
2023-05-16T22:32:10.157Z,20.10
2023-05-16T22:34:39.801Z,20.22
2023-05-16T22:37:10.311Z,20.13
2023-05-16T22:39:37.374Z,19.89
2023-05-16T22:42:05.100Z,19.65
2023-05-16T22:44:32.127Z,19.40
2023-05-16T22:46:59.475Z,19.21
2023-05-16T22:49:26.563Z,19.06
2023-05-16T22:51:53.606Z,18.95
2023-05-16T22:54:21.005Z,18.83
2023-05-16T22:56:47.906Z,19.39
2023-05-16T22:59:15.202Z,20.09
2023-05-16T23:01:42.183Z,20.26
2023-05-16T23:04:09.288Z,20.16
2023-05-16T23:06:36.731Z,19.97
2023-05-16T23:09:04.808Z,19.73
2023-05-16T23:11:32.609Z,19.48
2023-05-16T23:13:59.805Z,19.32
2023-05-16T23:16:26.804Z,19.24
2023-05-16T23:18:53.838Z,19.16
2023-05-16T23:21:20.984Z,19.03
2023-05-16T23:23:48.630Z,18.95
2023-05-16T23:26:15.708Z,18.88
2023-05-16T23:28:42.962Z,18.84
2023-05-16T23:31:10.441Z,18.81
2023-05-16T23:33:37.632Z,18.74
2023-05-16T23:36:04.953Z,19.39
2023-05-16T23:38:31.957Z,20.10
2023-05-16T23:40:58.967Z,20.28
2023-05-16T23:43:26.214Z,20.17
2023-05-16T23:45:53.159Z,20.00
2023-05-16T23:48:20.472Z,19.79
2023-05-16T23:50:47.630Z,19.58
2023-05-16T23:53:15.411Z,19.40
2023-05-16T23:55:42.515Z,19.26
2023-05-16T23:58:09.555Z,19.14
